createdAt,value
2019-03-16T00:01:23.425Z,190.32
2019-03-16T00:03:54.415Z,212.00
2019-03-16T00:06:26.505Z,204.65
2019-03-16T00:08:57.846Z,208.75
2019-03-16T00:11:29.091Z,188.32
2019-03-16T00:14:00.072Z,173.05
2019-03-16T00:16:31.112Z,149.00
2019-03-16T00:19:02.090Z,149.25
2019-03-16T00:21:33.260Z,137.22
2019-03-16T00:24:04.245Z,137.47
2019-03-16T00:26:35.332Z,138.47
2019-03-16T00:29:06.486Z,137.88
2019-03-16T00:31:37.622Z,137.07
2019-03-16T00:34:08.712Z,139.97
2019-03-16T00:36:39.818Z,127.12
2019-03-16T00:39:10.846Z,133.67
2019-03-16T00:41:41.917Z,139.12
2019-03-16T00:44:13.041Z,130.70
2019-03-16T00:46:44.077Z,132.05
2019-03-16T00:49:15.131Z,136.62
2019-03-16T00:51:46.309Z,132.87
2019-03-16T00:54:17.450Z,132.20
2019-03-16T00:56:48.424Z,144.37
2019-03-16T00:59:19.532Z,131.78
2019-03-16T01:01:50.665Z,136.03
2019-03-16T01:04:21.736Z,111.12
2019-03-16T01:06:53.435Z,118.13
2019-03-16T01:09:24.971Z,124.62
2019-03-16T01:11:56.151Z,136.95
2019-03-16T01:14:27.309Z,127.87
2019-03-16T01:16:58.417Z,130.50
2019-03-16T01:19:29.467Z,128.27
2019-03-16T01:22:00.675Z,143.68
2019-03-16T01:24:31.653Z,145.85
2019-03-16T01:27:02.805Z,131.82
2019-03-16T01:29:33.944Z,135.78
2019-03-16T01:32:04.981Z,135.12
2019-03-16T01:34:36.134Z,146.20
2019-03-16T01:37:07.188Z,143.28
2019-03-16T01:39:38.347Z,142.53
2019-03-16T01:42:09.313Z,147.68
2019-03-16T01:44:40.431Z,148.68
2019-03-16T01:47:11.431Z,130.78
2019-03-16T01:49:42.443Z,138.22
2019-03-16T01:52:13.832Z,135.43
2019-03-16T01:54:44.829Z,138.72
2019-03-16T01:57:15.900Z,137.95
2019-03-16T01:59:48.257Z,124.07
2019-03-16T02:02:19.232Z,132.30
2019-03-16T02:04:50.364Z,133.97
2019-03-16T02:07:21.406Z,128.30
2019-03-16T02:09:52.437Z,135.85
2019-03-16T02:12:23.976Z,130.67
2019-03-16T02:14:55.054Z,121.67
2019-03-16T02:17:26.084Z,140.60
2019-03-16T02:19:57.110Z,126.45
2019-03-16T02:22:28.115Z,128.70
2019-03-16T02:24:59.271Z,127.65
2019-03-16T02:27:30.366Z,124.25
2019-03-16T02:30:01.561Z,121.47
2019-03-16T02:32:32.604Z,136.90
2019-03-16T02:35:04.926Z,139.62
2019-03-16T02:37:35.938Z,134.82
2019-03-16T02:40:09.147Z,135.40
2019-03-16T02:42:40.166Z,133.07
2019-03-16T02:45:11.305Z,130.20
2019-03-16T02:47:42.352Z,128.27
2019-03-16T02:50:14.029Z,125.38
2019-03-16T02:52:49.323Z,127.30
2019-03-16T02:55:17.856Z,136.45
2019-03-16T02:57:48.844Z,131.60
2019-03-16T03:00:19.898Z,126.25
2019-03-16T03:02:51.021Z,128.68
2019-03-16T03:05:22.064Z,123.90
2019-03-16T03:07:54.532Z,148.82
2019-03-16T03:10:25.689Z,122.13
2019-03-16T03:12:56.785Z,118.77
2019-03-16T03:15:27.866Z,120.95
2019-03-16T03:17:59.922Z,132.32
2019-03-16T03:20:31.110Z,125.25
2019-03-16T03:23:02.181Z,131.85
2019-03-16T03:25:33.526Z,120.25
2019-03-16T03:28:04.558Z,119.45
2019-03-16T03:30:35.734Z,126.22
2019-03-16T03:33:06.851Z,112.35
2019-03-16T03:35:37.891Z,124.72
2019-03-16T03:38:08.944Z,132.32
2019-03-16T03:40:39.988Z,122.30
2019-03-16T03:43:11.016Z,122.80
2019-03-16T03:45:42.068Z,125.70
2019-03-16T03:48:13.047Z,131.27
2019-03-16T03:50:44.158Z,116.90
2019-03-16T03:53:15.195Z,128.32
2019-03-16T03:55:46.339Z,134.15
2019-03-16T03:58:17.372Z,119.55
2019-03-16T04:00:48.357Z,111.37
2019-03-16T04:03:19.523Z,123.18
2019-03-16T04:05:50.603Z,117.55
2019-03-16T04:08:21.770Z,113.90
2019-03-16T04:10:52.792Z,115.37
2019-03-16T04:13:23.833Z,113.42
2019-03-16T04:15:54.874Z,134.40
2019-03-16T04:18:26.006Z,122.20
2019-03-16T04:20:57.067Z,113.25
2019-03-16T04:23:28.103Z,110.03
2019-03-16T04:25:59.143Z,121.75
2019-03-16T04:28:30.176Z,112.42
2019-03-16T04:31:01.293Z,122.42
2019-03-16T04:33:32.370Z,119.13
2019-03-16T04:36:03.479Z,115.60
2019-03-16T04:38:34.624Z,118.10
2019-03-16T04:41:05.738Z,115.32
2019-03-16T04:43:36.713Z,118.93
2019-03-16T04:46:07.817Z,113.85
2019-03-16T04:48:38.927Z,117.87
2019-03-16T04:51:10.003Z,117.62
2019-03-16T04:53:41.113Z,133.20
2019-03-16T04:56:12.178Z,118.25
2019-03-16T04:58:43.301Z,115.20
2019-03-16T05:01:15.392Z,108.50
2019-03-16T05:03:46.520Z,112.25
2019-03-16T05:06:17.589Z,115.90
2019-03-16T05:08:48.572Z,102.02
2019-03-16T05:11:19.737Z,107.22
2019-03-16T05:13:50.771Z,100.95
2019-03-16T05:16:21.852Z,112.37
2019-03-16T05:18:52.826Z,107.95
2019-03-16T05:21:23.918Z,110.83
2019-03-16T05:23:54.899Z,110.92
2019-03-16T05:26:25.971Z,114.55
2019-03-16T05:28:57.105Z,119.85
2019-03-16T05:31:28.165Z,103.72
2019-03-16T05:33:59.385Z,104.95
2019-03-16T05:36:30.521Z,105.80
2019-03-16T05:39:01.596Z,95.17
2019-03-16T05:41:33.977Z,101.62
2019-03-16T05:44:04.995Z,97.85
2019-03-16T05:46:35.957Z,97.37
2019-03-16T05:49:06.996Z,105.27
2019-03-16T05:51:38.076Z,88.72
2019-03-16T05:54:08.966Z,81.60
2019-03-16T05:56:40.022Z,87.92
2019-03-16T05:59:11.103Z,93.35
2019-03-16T06:01:42.140Z,91.72
2019-03-16T06:04:13.145Z,85.35
2019-03-16T06:06:44.717Z,96.47
2019-03-16T06:09:15.741Z,90.35
2019-03-16T06:11:46.892Z,81.15
2019-03-16T06:14:18.013Z,83.03
2019-03-16T06:16:49.087Z,89.97
2019-03-16T06:19:20.192Z,87.02
2019-03-16T06:21:51.366Z,83.40
2019-03-16T06:24:22.465Z,77.37
2019-03-16T06:26:53.484Z,79.75
2019-03-16T06:29:24.561Z,83.50
2019-03-16T06:31:55.834Z,95.65
2019-03-16T06:34:26.985Z,84.62
2019-03-16T06:36:58.152Z,83.62
2019-03-16T06:39:29.159Z,76.30
2019-03-16T06:42:00.059Z,89.32
2019-03-16T06:44:31.002Z,76.90
2019-03-16T06:47:02.061Z,79.22
2019-03-16T06:49:33.026Z,83.87
2019-03-16T06:52:03.966Z,79.62
2019-03-16T06:54:35.074Z,77.92
2019-03-16T06:57:06.039Z,81.17
2019-03-16T06:59:37.062Z,72.25
2019-03-16T07:02:08.024Z,83.90
2019-03-16T07:04:38.961Z,77.92
2019-03-16T07:07:09.927Z,74.90
2019-03-16T07:09:40.992Z,69.82
2019-03-16T07:12:12.058Z,73.57
2019-03-16T07:14:44.152Z,67.92
2019-03-16T07:17:15.671Z,70.70
2019-03-16T07:19:46.854Z,64.62
2019-03-16T07:22:19.031Z,62.30
2019-03-16T07:24:51.822Z,55.92
2019-03-16T07:27:26.297Z,57.35
2019-03-16T07:29:55.896Z,59.90
2019-03-16T07:32:27.142Z,62.73
2019-03-16T07:34:58.222Z,61.48
2019-03-16T07:37:29.531Z,56.88
2019-03-16T07:40:00.731Z,67.05
2019-03-16T07:42:32.751Z,54.35
2019-03-16T07:45:08.422Z,56.92
2019-03-16T07:47:38.361Z,56.70
2019-03-16T07:50:11.554Z,53.45
2019-03-16T07:52:42.692Z,59.75
2019-03-16T07:55:15.257Z,54.70
2019-03-16T07:57:46.277Z,52.60
2019-03-16T08:00:17.329Z,44.85
2019-03-16T08:02:48.830Z,39.73
2019-03-16T08:05:20.031Z,40.58
2019-03-16T08:07:51.187Z,38.53
2019-03-16T08:10:22.115Z,34.83
2019-03-16T08:12:53.133Z,35.90
2019-03-16T08:15:24.287Z,39.42
2019-03-16T08:17:55.585Z,41.95
2019-03-16T08:20:26.910Z,30.12
2019-03-16T08:22:57.944Z,25.65
2019-03-16T08:25:29.125Z,32.33
2019-03-16T08:28:00.505Z,26.02
2019-03-16T08:30:31.649Z,35.68
2019-03-16T08:33:02.967Z,23.15
2019-03-16T08:35:34.050Z,23.55
2019-03-16T08:38:05.284Z,27.55
2019-03-16T08:40:36.654Z,32.73
2019-03-16T08:43:08.318Z,22.52
2019-03-16T08:45:39.366Z,24.67
2019-03-16T08:48:22.237Z,24.18
2019-03-16T08:50:43.196Z,29.15
2019-03-16T08:53:14.345Z,38.17
2019-03-16T08:55:45.273Z,30.88
2019-03-16T08:58:16.550Z,39.78
2019-03-16T09:00:47.812Z,29.02
2019-03-16T09:03:19.051Z,21.52
2019-03-16T09:05:50.041Z,24.70
2019-03-16T09:08:24.317Z,28.73
2019-03-16T09:10:55.412Z,28.17
2019-03-16T09:13:26.617Z,28.10
2019-03-16T09:15:57.505Z,34.25
2019-03-16T09:18:28.575Z,23.35
2019-03-16T09:20:59.586Z,20.17
2019-03-16T09:23:30.825Z,30.55
2019-03-16T09:26:02.094Z,25.10
2019-03-16T09:28:33.308Z,23.02
2019-03-16T09:31:12.339Z,28.23
2019-03-16T09:33:46.919Z,22.42
2019-03-16T09:36:18.284Z,15.83
2019-03-16T09:38:49.341Z,19.52
2019-03-16T09:41:20.509Z,40.92
2019-03-16T09:43:51.661Z,21.40
2019-03-16T09:46:24.442Z,26.82
2019-03-16T09:48:58.956Z,27.55
2019-03-16T09:51:31.204Z,24.23
2019-03-16T09:54:03.760Z,31.87
2019-03-16T09:56:35.601Z,21.87
2019-03-16T09:59:07.221Z,21.37
2019-03-16T10:01:38.986Z,24.27
2019-03-16T10:04:14.355Z,19.60
2019-03-16T10:06:45.975Z,23.87
2019-03-16T10:09:17.201Z,23.35
2019-03-16T10:11:48.462Z,20.68
2019-03-16T10:14:20.005Z,22.80
2019-03-16T10:16:51.128Z,25.40
2019-03-16T10:19:22.404Z,32.90
2019-03-16T10:21:53.350Z,15.10
2019-03-16T10:24:24.544Z,65.00
2019-03-16T10:26:55.727Z,27.95
2019-03-16T10:29:26.804Z,29.02
2019-03-16T10:31:57.704Z,30.88
2019-03-16T10:34:28.979Z,15.95
2019-03-16T10:37:00.199Z,22.42
2019-03-16T10:39:31.523Z,65.72
2019-03-16T10:42:02.505Z,36.17
2019-03-16T10:44:33.685Z,34.55
2019-03-16T10:47:06.290Z,23.45
2019-03-16T10:49:37.414Z,21.12
2019-03-16T10:52:08.778Z,32.13
2019-03-16T10:54:39.729Z,40.43
2019-03-16T10:57:10.891Z,24.00
2019-03-16T10:59:43.029Z,23.75
2019-03-16T11:02:14.002Z,17.92
2019-03-16T11:04:44.984Z,19.23
2019-03-16T11:07:16.054Z,26.00
2019-03-16T11:09:47.308Z,24.37
2019-03-16T11:12:18.387Z,21.52
2019-03-16T11:14:49.496Z,22.13
2019-03-16T11:17:20.568Z,22.10
2019-03-16T11:19:51.641Z,16.05
2019-03-16T11:22:22.957Z,26.55
2019-03-16T11:24:55.246Z,29.82
2019-03-16T11:27:26.314Z,29.90
2019-03-16T11:29:57.458Z,17.95
2019-03-16T11:32:28.452Z,20.37
2019-03-16T11:34:59.637Z,27.25
2019-03-16T11:37:30.830Z,16.32
2019-03-16T11:40:01.823Z,24.20
2019-03-16T11:42:32.924Z,28.25
2019-03-16T11:45:06.344Z,31.15
2019-03-16T11:50:09.579Z,14.40
2019-03-16T11:52:40.560Z,18.00
2019-03-16T11:55:11.551Z,16.52
2019-03-16T11:57:42.697Z,31.55
2019-03-16T12:00:14.684Z,26.48
2019-03-16T12:02:46.349Z,16.17
2019-03-16T12:05:17.458Z,21.37
2019-03-16T12:07:48.677Z,23.47
2019-03-16T12:10:19.719Z,22.00
2019-03-16T12:12:50.699Z,20.72
2019-03-16T12:15:21.822Z,19.57
2019-03-16T12:17:53.104Z,22.45
2019-03-16T12:20:24.287Z,27.10
2019-03-16T12:22:55.972Z,31.05
2019-03-16T12:25:27.190Z,34.20
2019-03-16T12:27:58.223Z,24.37
2019-03-16T12:30:29.087Z,21.45
2019-03-16T12:33:00.199Z,26.70
2019-03-16T12:35:31.237Z,18.25
2019-03-16T12:38:02.250Z,40.58
2019-03-16T12:40:33.237Z,14.70
2019-03-16T12:43:04.109Z,37.17
2019-03-16T12:45:35.091Z,27.02
2019-03-16T12:48:06.051Z,49.13
2019-03-16T12:50:36.913Z,17.27
2019-03-16T12:53:07.816Z,49.67
2019-03-16T12:55:38.834Z,38.80
2019-03-16T12:58:09.795Z,47.73
2019-03-16T13:00:40.782Z,26.70
2019-03-16T13:03:11.778Z,29.35
2019-03-16T13:05:42.764Z,15.85
2019-03-16T13:08:13.758Z,11.05
2019-03-16T13:10:44.757Z,13.43
2019-03-16T13:13:15.617Z,17.00
2019-03-16T13:15:46.623Z,21.68
2019-03-16T13:18:17.616Z,14.58
2019-03-16T13:20:48.711Z,27.80
2019-03-16T13:23:19.604Z,35.15
2019-03-16T13:25:50.679Z,23.83
2019-03-16T13:28:21.677Z,49.40
2019-03-16T13:30:52.709Z,20.32
2019-03-16T13:33:23.746Z,52.03
2019-03-16T13:35:54.735Z,16.25
2019-03-16T13:38:25.640Z,20.23
2019-03-16T13:40:56.726Z,19.48
2019-03-16T13:43:27.651Z,15.63
2019-03-16T13:45:58.562Z,35.15
2019-03-16T13:48:29.652Z,24.87
2019-03-16T13:51:00.535Z,86.10
2019-03-16T13:53:32.694Z,27.58
2019-03-16T13:56:04.931Z,46.63
2019-03-16T13:58:36.136Z,25.35
2019-03-16T14:01:07.137Z,20.90
2019-03-16T14:03:39.266Z,26.30
2019-03-16T14:06:11.603Z,28.50
2019-03-16T14:08:42.545Z,31.62
2019-03-16T14:11:13.612Z,21.20
2019-03-16T14:13:44.643Z,17.23
2019-03-16T14:16:15.853Z,24.30
2019-03-16T14:18:46.824Z,23.95
2019-03-16T14:21:17.749Z,115.55
2019-03-16T14:23:49.379Z,47.75
2019-03-16T14:26:20.293Z,24.65
2019-03-16T14:28:51.177Z,21.02
2019-03-16T14:31:22.113Z,23.07
2019-03-16T14:33:53.291Z,22.05
2019-03-16T14:36:24.326Z,40.23
2019-03-16T14:38:55.276Z,47.67
2019-03-16T14:41:26.426Z,28.17
2019-03-16T14:43:57.630Z,42.78
2019-03-16T14:46:28.591Z,35.55
2019-03-16T14:49:00.085Z,53.52
2019-03-16T14:51:31.569Z,39.53
2019-03-16T14:54:02.577Z,36.45
2019-03-16T14:56:33.471Z,27.02
2019-03-16T14:59:04.413Z,45.43
2019-03-16T15:01:35.547Z,38.78
2019-03-16T15:04:06.706Z,50.50
2019-03-16T15:06:37.731Z,43.17
2019-03-16T15:09:08.725Z,40.52
2019-03-16T15:11:41.421Z,36.53
2019-03-16T15:14:21.601Z,41.53
2019-03-16T15:16:45.492Z,35.83
2019-03-16T15:19:16.509Z,27.42
2019-03-16T15:21:47.472Z,33.48
2019-03-16T15:24:18.540Z,29.65
2019-03-16T15:26:49.562Z,35.70
2019-03-16T15:29:20.658Z,25.65
2019-03-16T15:31:51.746Z,31.07
2019-03-16T15:34:22.847Z,25.05
2019-03-16T15:36:53.929Z,41.92
2019-03-16T15:39:25.040Z,46.35
2019-03-16T15:41:56.094Z,45.00
2019-03-16T15:44:26.957Z,43.30
2019-03-16T15:46:57.942Z,42.40
2019-03-16T15:49:28.929Z,48.17
2019-03-16T15:52:00.568Z,37.03
2019-03-16T15:54:31.513Z,34.08
2019-03-16T15:57:02.505Z,36.58
2019-03-16T15:59:33.447Z,36.10
2019-03-16T16:02:05.490Z,38.90
2019-03-16T16:04:36.615Z,40.35
2019-03-16T16:07:07.896Z,36.77
2019-03-16T16:09:38.843Z,31.80
2019-03-16T16:12:10.892Z,35.30
2019-03-16T16:14:42.074Z,24.05
2019-03-16T16:17:13.173Z,27.50
2019-03-16T16:19:44.255Z,45.38
2019-03-16T16:22:17.298Z,27.52
2019-03-16T16:24:48.459Z,27.37
2019-03-16T16:27:20.029Z,29.82
2019-03-16T16:29:51.257Z,31.70
2019-03-16T16:32:22.364Z,29.70
2019-03-16T16:34:53.510Z,35.83
2019-03-16T16:37:24.766Z,29.87
2019-03-16T16:39:55.803Z,33.08
2019-03-16T16:42:27.154Z,43.58
2019-03-16T16:44:58.297Z,28.35
2019-03-16T16:47:29.453Z,40.85
2019-03-16T16:50:00.466Z,27.82
2019-03-16T16:52:31.672Z,27.40
2019-03-16T16:55:02.807Z,23.15
2019-03-16T16:57:34.671Z,42.15
2019-03-16T17:00:17.919Z,41.15
2019-03-16T17:02:48.938Z,33.15
2019-03-16T17:05:19.929Z,28.92
2019-03-16T17:07:50.994Z,57.03
2019-03-16T17:10:22.024Z,27.20
2019-03-16T17:12:52.984Z,25.43
2019-03-16T17:15:24.542Z,25.27
2019-03-16T17:17:55.568Z,22.02
2019-03-16T17:20:26.500Z,23.15
2019-03-16T17:22:57.431Z,26.10
2019-03-16T17:25:28.301Z,21.65
2019-03-16T17:27:59.494Z,25.80
2019-03-16T17:30:34.464Z,34.73
2019-03-16T17:33:05.399Z,29.45
2019-03-16T17:35:36.442Z,36.85
2019-03-16T17:38:07.479Z,31.33
2019-03-16T17:40:38.420Z,30.05
2019-03-16T17:43:10.193Z,32.05
2019-03-16T17:45:41.205Z,35.65
2019-03-16T17:48:12.423Z,36.98
2019-03-16T17:50:43.393Z,34.60
2019-03-16T17:53:14.341Z,40.12
2019-03-16T17:55:46.388Z,35.35
2019-03-16T17:58:17.412Z,37.60
2019-03-16T18:00:48.555Z,35.43
2019-03-16T18:03:19.843Z,37.95
2019-03-16T18:05:50.954Z,44.75
2019-03-16T18:08:21.923Z,52.08
2019-03-16T18:10:52.810Z,36.77
2019-03-16T18:13:23.881Z,34.67
2019-03-16T18:15:54.902Z,36.40
2019-03-16T18:18:25.885Z,34.25
2019-03-16T18:20:56.894Z,35.13
2019-03-16T18:23:28.227Z,34.10
2019-03-16T18:25:59.277Z,37.50
2019-03-16T18:28:30.246Z,34.98
2019-03-16T18:31:01.300Z,33.70
2019-03-16T18:33:32.447Z,28.67
2019-03-16T18:36:03.592Z,29.55
2019-03-16T18:38:34.797Z,29.67
2019-03-16T18:41:05.784Z,34.67
2019-03-16T18:43:36.876Z,28.45
2019-03-16T18:46:08.733Z,35.83
2019-03-16T18:48:39.902Z,27.52
2019-03-16T18:51:11.159Z,33.85
2019-03-16T18:53:42.120Z,33.70
2019-03-16T18:56:13.062Z,32.78
2019-03-16T18:58:43.975Z,38.02
2019-03-16T19:01:15.027Z,29.48
2019-03-16T19:03:45.983Z,33.55
2019-03-16T19:06:17.019Z,34.18
2019-03-16T19:08:48.034Z,30.55
2019-03-16T19:11:19.051Z,30.65
2019-03-16T19:13:50.196Z,33.05
2019-03-16T19:16:21.074Z,34.95
2019-03-16T19:18:52.175Z,31.33
2019-03-16T19:21:23.373Z,38.23
2019-03-16T19:23:54.554Z,38.88
2019-03-16T19:26:25.503Z,44.85
2019-03-16T19:28:56.621Z,38.90
2019-03-16T19:31:27.627Z,41.10
2019-03-16T19:33:58.708Z,44.58
2019-03-16T19:36:29.766Z,40.80
2019-03-16T19:39:01.925Z,41.40
2019-03-16T19:41:34.153Z,42.03
2019-03-16T19:44:05.328Z,43.15
2019-03-16T19:46:36.394Z,40.28
2019-03-16T19:49:07.629Z,48.30
2019-03-16T19:51:38.685Z,44.73
2019-03-16T19:54:09.552Z,45.00
2019-03-16T19:56:40.598Z,40.78
2019-03-16T19:59:11.630Z,47.67
2019-03-16T20:01:42.501Z,43.78
2019-03-16T20:04:13.780Z,49.13
2019-03-16T20:06:45.865Z,46.33
2019-03-16T20:09:16.876Z,51.92
2019-03-16T20:11:48.045Z,48.02
2019-03-16T20:14:19.124Z,48.98
2019-03-16T20:16:50.101Z,48.28
2019-03-16T20:19:21.035Z,50.95
2019-03-16T20:21:51.945Z,50.65
2019-03-16T20:24:22.996Z,54.73
2019-03-16T20:26:53.885Z,56.20
2019-03-16T20:29:24.853Z,66.40
2019-03-16T20:31:55.857Z,58.78
2019-03-16T20:34:32.972Z,54.45
2019-03-16T20:37:03.970Z,55.05
2019-03-16T20:39:35.070Z,66.28
2019-03-16T20:42:06.213Z,102.47
2019-03-16T20:44:37.509Z,68.12
2019-03-16T20:47:08.501Z,51.95
2019-03-16T20:49:39.809Z,46.98
2019-03-16T20:52:10.969Z,45.48
2019-03-16T20:54:42.011Z,39.20
2019-03-16T20:57:12.968Z,41.37
2019-03-16T20:59:44.305Z,38.90
2019-03-16T21:02:15.358Z,33.78
2019-03-16T21:04:46.340Z,36.08
2019-03-16T21:07:17.438Z,29.85
2019-03-16T21:09:48.538Z,29.90
2019-03-16T21:12:19.626Z,52.03
2019-03-16T21:14:50.761Z,68.70
2019-03-16T21:17:21.859Z,50.28
2019-03-16T21:19:52.857Z,22.45
2019-03-16T21:22:35.298Z,25.95
2019-03-16T21:24:56.487Z,175.62
2019-03-16T21:27:27.629Z,42.58
2019-03-16T21:29:58.624Z,83.12
2019-03-16T21:32:29.493Z,48.45
2019-03-16T21:35:00.571Z,74.42
2019-03-16T21:37:31.578Z,91.82
2019-03-16T21:40:03.098Z,21.15
2019-03-16T21:42:34.247Z,15.78
2019-03-16T21:45:07.705Z,53.13
2019-03-16T21:47:38.631Z,62.08
2019-03-16T21:50:13.942Z,311.75
2019-03-16T21:52:45.265Z,97.95
2019-03-16T21:55:26.760Z,61.75
2019-03-16T21:57:57.775Z,97.88
2019-03-16T22:00:28.710Z,45.15
2019-03-16T22:02:59.592Z,63.45
2019-03-16T22:05:30.592Z,75.85
2019-03-16T22:08:01.591Z,68.20
2019-03-16T22:10:32.570Z,78.02
2019-03-16T22:13:03.573Z,43.28
2019-03-16T22:15:35.043Z,39.38
2019-03-16T22:18:05.951Z,45.48
2019-03-16T22:20:36.876Z,46.30
2019-03-16T22:23:07.846Z,52.25
2019-03-16T22:25:38.827Z,51.08
2019-03-16T22:28:10.359Z,42.93
2019-03-16T22:30:41.521Z,35.85
2019-03-16T22:33:12.534Z,36.65
2019-03-16T22:35:43.418Z,60.48
2019-03-16T22:38:14.485Z,46.85
2019-03-16T22:40:45.586Z,47.98
2019-03-16T22:43:17.180Z,39.65
2019-03-16T22:45:49.247Z,40.92
2019-03-16T22:48:20.758Z,44.30
2019-03-16T22:50:51.896Z,51.33
2019-03-16T22:53:22.786Z,43.23
2019-03-16T22:55:53.881Z,42.23
2019-03-16T22:58:24.830Z,47.73
2019-03-16T23:00:56.029Z,37.53
2019-03-16T23:03:27.059Z,40.65
2019-03-16T23:05:58.044Z,41.58
2019-03-16T23:08:28.984Z,40.03
2019-03-16T23:11:00.095Z,40.38
2019-03-16T23:13:31.192Z,42.73
2019-03-16T23:16:02.383Z,36.35
2019-03-16T23:18:36.195Z,38.23
2019-03-16T23:21:07.268Z,40.17
2019-03-16T23:23:38.127Z,45.30
2019-03-16T23:26:09.271Z,39.78
2019-03-16T23:28:40.414Z,39.13
2019-03-16T23:31:12.632Z,39.85
2019-03-16T23:33:43.839Z,39.18
2019-03-16T23:36:14.946Z,42.45
2019-03-16T23:38:45.819Z,39.33
2019-03-16T23:41:16.929Z,41.70
2019-03-16T23:43:48.102Z,38.63
2019-03-16T23:46:19.107Z,35.90
2019-03-16T23:48:50.081Z,32.85
2019-03-16T23:51:21.283Z,30.72
2019-03-16T23:53:52.200Z,36.28
2019-03-16T23:56:23.119Z,33.18
2019-03-16T23:58:55.205Z,37.48
